Time;durP1;ratioP1;P1;durP2;ratioP2;P2;SDS_P1;SDS_P2;PMS_P1;PMS_P2;Temp;Humidity;BMP_temperature;BMP_pressure;BME280_temperature;BME280_humidity;BME280_pressure;Samples;Min_cycle;Max_cycle;Signal;HPM_P1;HPM_P2
2022/06/28 00:01:43;;;;;;;;;;;;;;;-146.27;100.00;64033.13;5113426;28;20002;-38
2022/06/28 00:04:08;;;;;;;;;;;;;;;-146.27;100.00;64033.13;5104883;28;19912;-38
2022/06/28 00:06:34;;;;;;;;;;;;;;;-146.27;100.00;64033.13;5092623;28;19969;-37
2022/06/28 00:08:59;;;;;;;;;;;;;;;-146.27;100.00;64033.13;5092981;28;19922;-38
2022/06/28 00:11:24;;;;;;;;;;;;;;;-146.27;100.00;64033.13;5092638;28;19965;-38
2022/06/28 00:13:50;;;;;;;;;;;;;;;-146.27;100.00;64033.13;5092713;28;19952;-37
2022/06/28 00:16:16;;;;;;;;;;;;;;;-146.27;100.00;64033.13;5092347;28;19916;-38
2022/06/28 00:18:42;;;;;;;;;;;;;;;-146.27;100.00;64033.13;5092394;28;20293;-38
2022/06/28 00:21:08;;;;;;;;;;;;;;;-146.27;100.00;64033.13;5092471;28;20247;-38
2022/06/28 00:23:34;;;;;;;;;;;;;;;-146.27;100.00;64033.13;5092843;28;19912;-37
2022/06/28 00:26:00;;;;;;;;;;;;;;;-146.27;100.00;64033.13;5092223;28;19912;-37
2022/06/28 00:28:25;;;;;;;;;;;;;;;-146.27;100.00;64033.13;5092358;28;20477;-37
2022/06/28 00:30:50;;;;;;;;;;;;;;;-146.27;100.00;64033.13;5092660;28;20380;-38
2022/06/28 00:33:16;;;;;;;;;;;;;;;-146.27;100.00;64033.13;5092463;28;19923;-37
2022/06/28 00:35:41;;;;;;;;;;;;;;;-146.27;100.00;64033.13;5092087;28;19928;-37
2022/06/28 00:38:07;;;;;;;;;;;;;;;-146.27;100.00;64033.13;5106045;28;19937;-38
2022/06/28 00:40:33;;;;;;;;;;;;;;;-146.27;100.00;64033.13;5112563;28;20279;-38
2022/06/28 00:42:58;;;;;;;;;;;;;;;-146.27;100.00;64033.13;5112917;28;19972;-38
2022/06/28 00:45:25;;;;;;;;;;;;;;;-146.27;100.00;64033.13;5112472;28;19915;-37
2022/06/28 00:47:50;;;;;;;;;;;;;;;-146.27;100.00;64033.13;5112646;28;19911;-46
2022/06/28 00:50:16;;;;;;;;;;;;;;;-146.27;100.00;64033.13;5112322;28;19915;-47
2022/06/28 00:53:00;;;;;;;;;;;;;;;-146.27;100.00;64033.13;5112198;28;20255;-47
2022/06/28 00:55:25;;;;;;;;;;;;;;;-146.27;100.00;64033.13;5112407;28;20006;-46
2022/06/28 00:57:50;;;;;;;;;;;;;;;-146.27;100.00;64033.13;5112629;28;19950;-48
2022/06/28 01:00:16;;;;;;;;;;;;;;;-146.27;100.00;64033.13;5110654;28;19911;-50
2022/06/28 01:02:41;;;;;;;;;;;;;;;-146.27;100.00;64033.13;5112350;28;19912;-48
2022/06/28 01:05:07;;;;;;;;;;;;;;;-146.27;100.00;64033.13;5095311;28;20391;-46
2022/06/28 01:07:32;;;;;;;;;;;;;;;-146.27;100.00;64033.13;5091429;28;19919;-46
2022/06/28 01:09:57;;;;;;;;;;;;;;;-146.27;100.00;64033.13;5091915;28;19912;-49
2022/06/28 01:12:23;;;;;;;;;;;;;;;-146.27;100.00;64033.13;5091416;28;19920;-50
2022/06/28 01:14:48;;;;;;;;;;;;;;;-146.27;100.00;64033.13;5091483;28;20049;-47
2022/06/28 01:17:13;;;;;;;;;;;;;;;-146.27;100.00;64033.13;5091589;28;19923;-50
2022/06/28 01:19:39;;;;;;;;;;;;;;;-146.27;100.00;64033.13;5091157;28;19941;-50
2022/06/28 01:22:06;;;;;;;;;;;;;;;-146.27;100.00;64033.13;5091292;28;19920;-48
2022/06/28 01:24:32;;;;;;;;;;;;;;;-146.27;100.00;64033.13;5091514;28;19918;-49
2022/06/28 01:26:57;;;;;;;;;;;;;;;-146.27;100.00;64033.13;5091632;28;20018;-48
2022/06/28 01:29:22;;;;;;;;;;;;;;;-146.27;100.00;64033.13;5091309;28;19961;-50
2022/06/28 01:31:48;;;;;;;;;;;;;;;-146.27;100.00;64033.13;5090994;28;19916;-49
2022/06/28 01:34:14;;;;;;;;;;;;;;;-146.27;100.00;64033.13;5091845;28;19912;-50
2022/06/28 01:36:40;;;;;;;;;;;;;;;-146.27;100.00;64033.13;5092847;28;20345;-48
2022/06/28 01:39:05;;;;;;;;;;;;;;;-146.27;100.00;64033.13;5111708;28;19954;-48
2022/06/28 01:41:33;;;;;;;;;;;;;;;-146.27;100.00;64033.13;5111424;28;20302;-49
2022/06/28 01:43:59;;;;;;;;;;;;;;;-146.27;100.00;64033.13;5111191;28;19919;-49
2022/06/28 01:46:26;;;;;;;;;;;;;;;-146.27;100.00;64033.13;5111313;28;19911;-49
2022/06/28 01:48:51;;;;;;;;;;;;;;;-146.27;100.00;64033.13;5111411;28;19937;-49
2022/06/28 01:51:17;;;;;;;;;;;;;;;-146.27;100.00;64033.13;5111438;28;19947;-48
2022/06/28 01:53:42;;;;;;;;;;;;;;;-146.27;100.00;64033.13;5111181;28;20252;-48
2022/06/28 01:56:07;;;;;;;;;;;;;;;-146.27;100.00;64033.13;5110791;28;19934;-50
2022/06/28 01:58:33;;;;;;;;;;;;;;;-146.27;100.00;64033.13;5110940;28;19915;-49
2022/06/28 02:00:58;;;;;;;;;;;;;;;-146.27;100.00;64033.13;5111379;28;19912;-50
2022/06/28 02:03:23;;;;;;;;;;;;;;;-146.27;100.00;64033.13;5108924;28;19918;-49
2022/06/28 02:05:48;;;;;;;;;;;;;;;-146.27;100.00;64033.13;5090473;28;19919;-48
2022/06/28 02:08:14;;;;;;;;;;;;;;;-146.27;100.00;64033.13;5090844;28;20302;-46
2022/06/28 02:10:39;;;;;;;;;;;;;;;-146.27;100.00;64033.13;5089422;28;19947;-49
2022/06/28 02:13:04;;;;;;;;;;;;;;;-146.27;100.00;64033.13;5090861;28;19916;-50
2022/06/28 02:15:30;;;;;;;;;;;;;;;-146.27;100.00;64033.13;5094266;28;19916;-48
2022/06/28 02:18:01;;;;;;;;;;;;;;;-146.27;100.00;64033.13;5095317;28;19969;-48
2022/06/28 02:20:27;;;;;;;;;;;;;;;-146.27;100.00;64033.13;5095120;28;19965;-47
2022/06/28 02:22:52;;;;;;;;;;;;;;;-146.27;100.00;64033.13;5095043;28;19920;-47
2022/06/28 02:25:17;;;;;;;;;;;;;;;-146.27;100.00;64033.13;5094266;28;20363;-38
2022/06/28 02:27:43;;;;;;;;;;;;;;;-146.27;100.00;64033.13;5094760;28;19947;-38
2022/06/28 02:30:09;;;;;;;;;;;;;;;-146.27;100.00;64033.13;5094987;28;19912;-37
2022/06/28 02:32:34;;;;;;;;;;;;;;;-146.27;100.00;64033.13;5094581;28;19916;-38
2022/06/28 02:40:28;;;;;;;;;;;;;;;-146.27;100.00;64033.13;5094745;28;20318;-38
2022/06/28 02:42:54;;;;;;;;;;;;;;;-146.27;100.00;64033.13;5094436;28;19912;-37
2022/06/28 02:45:21;;;;;;;;;;;;;;;-146.27;100.00;64033.13;5094405;28;19912;-38
2022/06/28 02:47:46;;;;;;;;;;;;;;;-146.27;100.00;64033.13;5094306;28;20569;-38
2022/06/28 02:50:12;;;;;;;;;;;;;;;-146.27;100.00;64033.13;5094567;28;19919;-38
2022/06/28 02:52:38;;;;;;;;;;;;;;;-146.27;100.00;64033.13;5094610;28;19935;-37
2022/06/28 02:55:04;;;;;;;;;;;;;;;-146.27;100.00;64033.13;5094086;28;20003;-38
2022/06/28 02:57:29;;;;;;;;;;;;;;;-146.27;100.00;64033.13;5093727;28;20002;-38
2022/06/28 02:59:54;;;;;;;;;;;;;;;-146.27;100.00;64033.13;5093970;28;19912;-38
2022/06/28 03:02:20;;;;;;;;;;;;;;;-146.27;100.00;64033.13;5093701;28;20245;-38
2022/06/28 03:04:45;;;;;;;;;;;;;;;-146.27;100.00;64033.13;5093599;28;19916;-38
2022/06/28 03:07:11;;;;;;;;;;;;;;;-146.27;100.00;64033.13;5093717;28;20340;-38
2022/06/28 03:09:36;;;;;;;;;;;;;;;-146.27;100.00;64033.13;5093685;28;19916;-38
2022/06/28 03:12:04;;;;;;;;;;;;;;;-146.27;100.00;64033.13;5093988;28;19977;-38
2022/06/28 03:14:30;;;;;;;;;;;;;;;-146.27;100.00;64033.13;5093710;28;19920;-38
2022/06/28 03:16:55;;;;;;;;;;;;;;;-146.27;100.00;64033.13;5093256;28;20273;-36
2022/06/28 03:19:20;;;;;;;;;;;;;;;-146.27;100.00;64033.13;5093511;28;20353;-37
2022/06/28 03:21:46;;;;;;;;;;;;;;;-146.27;100.00;64033.13;5093773;28;19965;-39
2022/06/28 03:24:11;;;;;;;;;;;;;;;-146.27;100.00;64033.13;5093454;28;19919;-37
2022/06/28 03:26:36;;;;;;;;;;;;;;;-146.27;100.00;64033.13;5092284;28;19928;-37
2022/06/28 03:29:02;;;;;;;;;;;;;;;-146.27;100.00;64033.13;5093292;28;19947;-37
2022/06/28 03:31:27;;;;;;;;;;;;;;;-146.27;100.00;64033.13;5093733;28;20006;-38
2022/06/28 03:33:52;;;;;;;;;;;;;;;-146.27;100.00;64033.13;5093450;28;19916;-38
2022/06/28 03:36:17;;;;;;;;;;;;;;;-146.27;100.00;64033.13;5093609;28;19931;-48
2022/06/28 03:38:43;;;;;;;;;;;;;;;-146.27;100.00;64033.13;5112081;28;20009;-47
2022/06/28 03:41:08;;;;;;;;;;;;;;;-146.27;100.00;64033.13;5105022;28;20004;-52
2022/06/28 03:43:34;;;;;;;;;;;;;;;-146.27;100.00;64033.13;5093063;28;19912;-37
2022/06/28 03:45:59;;;;;;;;;;;;;;;-146.27;100.00;64033.13;5093128;28;19951;-36
2022/06/28 03:48:24;;;;;;;;;;;;;;;-146.27;100.00;64033.13;5090885;28;20296;-37
2022/06/28 03:50:50;;;;;;;;;;;;;;;-146.27;100.00;64033.13;5093160;28;19913;-37
2022/06/28 03:53:15;;;;;;;;;;;;;;;-146.27;100.00;64033.13;5095113;28;19923;-38
2022/06/28 03:55:40;;;;;;;;;;;;;;;-146.27;100.00;64033.13;5092961;28;20349;-38
2022/06/28 03:58:06;;;;;;;;;;;;;;;-146.27;100.00;64033.13;5105333;28;19995;-38
2022/06/28 04:00:31;;;;;;;;;;;;;;;-146.27;100.00;64033.13;5104870;28;19936;-48
2022/06/28 04:03:00;;;;;;;;;;;;;;;-146.27;100.00;64033.13;5099334;28;19912;-47
2022/06/28 04:05:26;;;;;;;;;;;;;;;-146.27;100.00;64033.13;5092815;28;19912;-36
2022/06/28 04:07:51;;;;;;;;;;;;;;;-146.27;100.00;64033.13;5091637;28;19916;-36
2022/06/28 04:10:16;;;;;;;;;;;;;;;-146.27;100.00;64033.13;5091797;28;19912;-37
2022/06/28 04:12:41;;;;;;;;;;;;;;;-146.27;100.00;64033.13;5091419;28;20367;-37
2022/06/28 04:15:07;;;;;;;;;;;;;;;-146.27;100.00;64033.13;5092205;28;19955;-37
2022/06/28 04:17:32;;;;;;;;;;;;;;;-146.27;100.00;64033.13;5092485;28;19989;-36
2022/06/28 04:19:57;;;;;;;;;;;;;;;-146.27;100.00;64033.13;5092071;28;19918;-36
2022/06/28 04:22:23;;;;;;;;;;;;;;;-146.27;100.00;64033.13;5091496;28;20016;-38
2022/06/28 04:24:48;;;;;;;;;;;;;;;-146.27;100.00;64033.13;5091548;28;19969;-37
2022/06/28 04:27:13;;;;;;;;;;;;;;;-146.27;100.00;64033.13;5092836;28;20006;-50
2022/06/28 04:29:39;;;;;;;;;;;;;;;-146.27;100.00;64033.13;5091894;28;20276;-49
2022/06/28 04:32:04;;;;;;;;;;;;;;;-146.27;100.00;64033.13;5091778;28;20362;-48
2022/06/28 04:34:30;;;;;;;;;;;;;;;-146.27;100.00;64033.13;5091330;28;19916;-49
2022/06/28 04:36:55;;;;;;;;;;;;;;;-146.27;100.00;64033.13;5095221;28;19928;-48
2022/06/28 04:39:20;;;;;;;;;;;;;;;-146.27;100.00;64033.13;5111924;28;19911;-48
2022/06/28 04:41:45;;;;;;;;;;;;;;;-146.27;100.00;64033.13;5111939;28;19915;-48
2022/06/28 04:44:11;;;;;;;;;;;;;;;-146.27;100.00;64033.13;5111254;28;19919;-47
2022/06/28 04:46:36;;;;;;;;;;;;;;;-146.27;100.00;64033.13;5111746;28;19916;-50
2022/06/28 04:49:01;;;;;;;;;;;;;;;-146.27;100.00;64033.13;5111689;28;19912;-50
2022/06/28 04:51:27;;;;;;;;;;;;;;;-146.27;100.00;64033.13;5111154;28;20303;-47
2022/06/28 04:53:52;;;;;;;;;;;;;;;-146.27;100.00;64033.13;5111021;28;20311;-47
2022/06/28 04:56:18;;;;;;;;;;;;;;;-146.27;100.00;64033.13;5111090;28;19962;-47
2022/06/28 04:58:43;;;;;;;;;;;;;;;-146.27;100.00;64033.13;5104852;28;19919;-47
2022/06/28 05:01:08;;;;;;;;;;;;;;;-146.27;100.00;64033.13;5091516;28;20348;-47
2022/06/28 05:03:34;;;;;;;;;;;;;;;-146.27;100.00;64033.13;5091105;28;19912;-49
2022/06/28 05:05:59;;;;;;;;;;;;;;;-146.27;100.00;64033.13;5090704;28;19912;-49
2022/06/28 05:08:24;;;;;;;;;;;;;;;-146.27;100.00;64033.13;5091551;28;19912;-51
2022/06/28 05:10:50;;;;;;;;;;;;;;;-146.27;100.00;64033.13;5091179;28;19938;-48
2022/06/28 05:13:15;;;;;;;;;;;;;;;-146.27;100.00;64033.13;5091015;28;19962;-36
2022/06/28 05:15:40;;;;;;;;;;;;;;;-146.27;100.00;64033.13;5090055;28;20301;-38
2022/06/28 05:18:06;;;;;;;;;;;;;;;-146.27;100.00;64033.13;5090922;28;19916;-37
2022/06/28 05:20:31;;;;;;;;;;;;;;;-146.27;100.00;64033.13;5082218;28;19931;-37
2022/06/28 05:22:56;;;;;;;;;;;;;;;-146.27;100.00;64033.13;5072371;28;19916;-47
2022/06/28 05:25:22;;;;;;;;;;;;;;;-146.27;100.00;64033.13;5070719;28;19920;-48
2022/06/28 05:27:47;;;;;;;;;;;;;;;-146.27;100.00;64033.13;5078442;28;19947;-48
2022/06/28 05:30:12;;;;;;;;;;;;;;;-146.27;100.00;64033.13;5090838;28;19923;-50
2022/06/28 05:32:38;;;;;;;;;;;;;;;-146.27;100.00;64033.13;5090688;28;20345;-49
2022/06/28 05:35:04;;;;;;;;;;;;;;;-146.27;100.00;64033.13;5090623;28;19963;-48
2022/06/28 05:37:29;;;;;;;;;;;;;;;-146.27;100.00;64033.13;5088425;28;19973;-47
2022/06/28 05:39:54;;;;;;;;;;;;;;;-146.27;100.00;64033.13;5088729;28;20009;-49
2022/06/28 05:42:19;;;;;;;;;;;;;;;-146.27;100.00;64033.13;5088465;28;19912;-48
2022/06/28 05:44:45;;;;;;;;;;;;;;;-146.27;100.00;64033.13;5087967;28;20395;-49
2022/06/28 05:47:11;;;;;;;;;;;;;;;-146.27;100.00;64033.13;5088113;28;19922;-48
2022/06/28 05:49:36;;;;;;;;;;;;;;;-146.27;100.00;64033.13;5087276;28;20399;-48
2022/06/28 05:52:02;;;;;;;;;;;;;;;-146.27;100.00;64033.13;5088320;28;20380;-49
2022/06/28 05:54:27;;;;;;;;;;;;;;;-146.27;100.00;64033.13;5088641;28;19980;-51
2022/06/28 05:56:52;;;;;;;;;;;;;;;-146.27;100.00;64033.13;5090458;28;19939;-48
2022/06/28 05:59:18;;;;;;;;;;;;;;;-146.27;100.00;64033.13;5090008;28;20003;-46
2022/06/28 06:01:43;;;;;;;;;;;;;;;-146.27;100.00;64033.13;5090219;28;20252;-49
2022/06/28 06:04:08;;;;;;;;;;;;;;;-146.27;100.00;64033.13;5090025;28;19923;-49
2022/06/28 06:06:33;;;;;;;;;;;;;;;-146.27;100.00;64033.13;5090133;28;19912;-46
2022/06/28 06:08:59;;;;;;;;;;;;;;;-146.27;100.00;64033.13;5090115;28;19916;-48
2022/06/28 06:11:25;;;;;;;;;;;;;;;-146.27;100.00;64033.13;5090438;28;20283;-47
2022/06/28 06:13:50;;;;;;;;;;;;;;;-146.27;100.00;64033.13;5089072;28;19916;-48
2022/06/28 06:16:15;;;;;;;;;;;;;;;-146.27;100.00;64033.13;5090515;28;19916;-48
2022/06/28 06:18:40;;;;;;;;;;;;;;;-146.27;100.00;64033.13;5089778;28;19912;-49
2022/06/28 06:21:06;;;;;;;;;;;;;;;-146.27;100.00;64033.13;5089910;28;19963;-48
2022/06/28 06:23:31;;;;;;;;;;;;;;;-146.27;100.00;64033.13;5090132;28;19912;-49
2022/06/28 06:25:56;;;;;;;;;;;;;;;-146.27;100.00;64033.13;5089528;28;19919;-48
2022/06/28 06:28:22;;;;;;;;;;;;;;;-146.27;100.00;64033.13;5090088;28;19935;-48
2022/06/28 06:30:47;;;;;;;;;;;;;;;-146.27;100.00;64033.13;5089475;28;19919;-48
2022/06/28 06:33:13;;;;;;;;;;;;;;;-146.27;100.00;64033.13;5090345;28;19912;-48
2022/06/28 06:35:38;;;;;;;;;;;;;;;-146.27;100.00;64033.13;5089422;28;19927;-49
2022/06/28 06:38:03;;;;;;;;;;;;;;;-146.27;100.00;64033.13;5102906;28;19923;-48
2022/06/28 06:40:30;;;;;;;;;;;;;;;-146.27;100.00;64033.13;5109783;28;20335;-48
2022/06/28 06:42:55;;;;;;;;;;;;;;;-146.27;100.00;64033.13;5109609;28;20442;-49
2022/06/28 06:45:23;;;;;;;;;;;;;;;-146.27;100.00;64033.13;5108795;28;20309;-48
2022/06/28 06:47:48;;;;;;;;;;;;;;;-146.27;100.00;64033.13;5109723;28;19918;-49
2022/06/28 06:50:14;;;;;;;;;;;;;;;-146.27;100.00;64033.13;5108966;28;19912;-51
2022/06/28 06:52:39;;;;;;;;;;;;;;;-146.27;100.00;64033.13;5108500;28;19951;-53
2022/06/28 06:55:05;;;;;;;;;;;;;;;-146.27;100.00;64033.13;5107978;28;20355;-47
2022/06/28 06:57:30;;;;;;;;;;;;;;;-146.27;100.00;64033.13;5108508;28;19911;-51
2022/06/28 06:59:55;;;;;;;;;;;;;;;-146.27;100.00;64033.13;5093493;28;19974;-47
2022/06/28 07:02:21;;;;;;;;;;;;;;;-146.27;100.00;64033.13;5092034;28;19954;-48
2022/06/28 07:04:46;;;;;;;;;;;;;;;-146.27;100.00;64033.13;5092048;28;19912;-48
2022/06/28 07:07:11;;;;;;;;;;;;;;;-146.27;100.00;64033.13;5093034;28;19923;-50
2022/06/28 07:09:37;;;;;;;;;;;;;;;-146.27;100.00;64033.13;5093188;28;20368;-47
2022/06/28 07:12:02;;;;;;;;;;;;;;;-146.27;100.00;64033.13;5093313;28;19947;-50
2022/06/28 07:14:27;;;;;;;;;;;;;;;-146.27;100.00;64033.13;5092676;28;20279;-51
2022/06/28 07:16:53;;;;;;;;;;;;;;;-146.27;100.00;64033.13;5093357;28;20006;-50
2022/06/28 07:19:18;;;;;;;;;;;;;;;-146.27;100.00;64033.13;5094183;28;20425;-51
2022/06/28 07:21:44;;;;;;;;;;;;;;;-146.27;100.00;64033.13;5096178;28;19919;-48
2022/06/28 07:24:10;;;;;;;;;;;;;;;-146.27;100.00;64033.13;5105541;28;20232;-49
2022/06/28 07:26:35;;;;;;;;;;;;;;;-146.27;100.00;64033.13;5096467;28;20345;-50
2022/06/28 07:29:01;;;;;;;;;;;;;;;-146.27;100.00;64033.13;5109083;28;19955;-51
2022/06/28 07:31:28;;;;;;;;;;;;;;;-146.27;100.00;64033.13;5099697;28;19920;-50
2022/06/28 07:33:53;;;;;;;;;;;;;;;-146.27;100.00;64033.13;5102603;28;19916;-50
2022/06/28 07:36:19;;;;;;;;;;;;;;;-146.27;100.00;64033.13;5106436;28;19977;-47
2022/06/28 07:38:44;;;;;;;;;;;;;;;-146.27;100.00;64033.13;5109577;28;19915;-51
2022/06/28 07:41:09;;;;;;;;;;;;;;;-146.27;100.00;64033.13;5096867;28;19912;-47
2022/06/28 07:43:35;;;;;;;;;;;;;;;-146.27;100.00;64033.13;5104532;28;19919;-48
2022/06/28 07:46:01;;;;;;;;;;;;;;;-146.27;100.00;64033.13;5098151;28;20035;-48
2022/06/28 07:48:26;;;;;;;;;;;;;;;-146.27;100.00;64033.13;5102854;28;19965;-50
2022/06/28 07:53:35;;;;;;;;;;;;;;;-146.27;100.00;64033.13;5106190;28;19966;-50
2022/06/28 07:56:01;;;;;;;;;;;;;;;-146.27;100.00;64033.13;5101615;28;19951;-49
2022/06/28 07:58:26;;;;;;;;;;;;;;;-146.27;100.00;64033.13;5106157;28;19977;-50
2022/06/28 08:00:52;;;;;;;;;;;;;;;-146.27;100.00;64033.13;5107582;28;20177;-52
2022/06/28 08:03:17;;;;;;;;;;;;;;;-146.27;100.00;64033.13;5100011;28;20006;-49
2022/06/28 08:05:42;;;;;;;;;;;;;;;-146.27;100.00;64033.13;5102542;28;20367;-51
2022/06/28 08:08:08;;;;;;;;;;;;;;;-146.27;100.00;64033.13;5101222;28;20280;-50
2022/06/28 08:10:33;;;;;;;;;;;;;;;-146.27;100.00;64033.13;5105258;28;19923;-50
2022/06/28 08:12:59;;;;;;;;;;;;;;;-146.27;100.00;64033.13;5094439;28;19928;-50
2022/06/28 08:15:24;;;;;;;;;;;;;;;-146.27;100.00;64033.13;5111360;28;20014;-50
2022/06/28 08:17:49;;;;;;;;;;;;;;;-146.27;100.00;64033.13;5098473;28;19920;-52
2022/06/28 08:20:14;;;;;;;;;;;;;;;-146.27;100.00;64033.13;5102884;28;19918;-50
2022/06/28 08:22:40;;;;;;;;;;;;;;;-146.27;100.00;64033.13;5108920;28;19923;-52
2022/06/28 08:25:08;;;;;;;;;;;;;;;-146.27;100.00;64033.13;5112173;28;20356;-49
2022/06/28 08:27:33;;;;;;;;;;;;;;;-146.27;100.00;64033.13;5112172;28;19967;-50
2022/06/28 08:29:59;;;;;;;;;;;;;;;-146.27;100.00;64033.13;5112776;28;19951;-48
2022/06/28 08:32:24;;;;;;;;;;;;;;;-146.27;100.00;64033.13;5112494;28;19915;-49
2022/06/28 08:34:50;;;;;;;;;;;;;;;-146.27;100.00;64033.13;5112121;28;19919;-51
2022/06/28 08:37:15;;;;;;;;;;;;;;;-146.27;100.00;64033.13;5110321;28;19984;-53
2022/06/28 08:39:41;;;;;;;;;;;;;;;-146.27;100.00;64033.13;5111575;28;19937;-48
2022/06/28 08:42:06;;;;;;;;;;;;;;;-146.27;100.00;64033.13;5111629;28;19916;-50
2022/06/28 08:44:34;;;;;;;;;;;;;;;-146.27;100.00;64033.13;5111595;28;20007;-51
2022/06/28 08:46:59;;;;;;;;;;;;;;;-146.27;100.00;64033.13;5111583;28;19923;-48
2022/06/28 08:49:33;;;;;;;;;;;;;;;-146.27;100.00;64033.13;5109651;28;19912;-51
2022/06/28 08:51:58;;;;;;;;;;;;;;;-146.27;100.00;64033.13;5109939;28;19928;-49
2022/06/28 08:54:23;;;;;;;;;;;;;;;-146.27;100.00;64033.13;5109515;28;19918;-51
2022/06/28 08:56:50;;;;;;;;;;;;;;;-146.27;100.00;64033.13;5109831;28;19995;-52
2022/06/28 08:59:15;;;;;;;;;;;;;;;-146.27;100.00;64033.13;5109538;28;20323;-52
2022/06/28 09:01:40;;;;;;;;;;;;;;;-146.27;100.00;64033.13;5110058;28;19912;-51
2022/06/28 09:04:07;;;;;;;;;;;;;;;-146.27;100.00;64033.13;5111286;28;19986;-52
2022/06/28 09:06:33;;;;;;;;;;;;;;;-146.27;100.00;64033.13;5111552;28;19912;-51
2022/06/28 09:08:59;;;;;;;;;;;;;;;-146.27;100.00;64033.13;5111744;28;19912;-52
2022/06/28 09:11:24;;;;;;;;;;;;;;;-146.27;100.00;64033.13;5111479;28;19922;-52
2022/06/28 09:13:50;;;;;;;;;;;;;;;-146.27;100.00;64033.13;5111511;28;20006;-50
2022/06/28 09:16:15;;;;;;;;;;;;;;;-146.27;100.00;64033.13;5109431;28;20396;-48
2022/06/28 09:18:40;;;;;;;;;;;;;;;-146.27;100.00;64033.13;5091260;28;20065;-48
2022/06/28 09:21:07;;;;;;;;;;;;;;;-146.27;100.00;64033.13;5090569;28;19993;-48
2022/06/28 09:23:33;;;;;;;;;;;;;;;-146.27;100.00;64033.13;5090966;28;19951;-49
2022/06/28 09:26:05;;;;;;;;;;;;;;;-146.27;100.00;64033.13;5090504;28;19970;-50
2022/06/28 09:28:30;;;;;;;;;;;;;;;-146.27;100.00;64033.13;5091073;28;20377;-48
2022/06/28 09:31:14;;;;;;;;;;;;;;;-146.27;100.00;64033.13;5090960;28;20352;-47
2022/06/28 09:33:40;;;;;;;;;;;;;;;-146.27;100.00;64033.13;5090980;28;19916;-47
2022/06/28 09:36:05;;;;;;;;;;;;;;;-146.27;100.00;64033.13;5090460;28;20026;-49
2022/06/28 09:38:32;;;;;;;;;;;;;;;-146.27;100.00;64033.13;5108216;28;20394;-49
2022/06/28 09:41:00;;;;;;;;;;;;;;;-146.27;100.00;64033.13;5111319;28;19911;-48
2022/06/28 09:43:31;;;;;;;;;;;;;;;-146.27;100.00;64033.13;5110733;28;19915;-49
2022/06/28 09:45:56;;;;;;;;;;;;;;;-146.27;100.00;64033.13;5110788;28;19918;-52
2022/06/28 09:48:22;;;;;;;;;;;;;;;-146.27;100.00;64033.13;5111527;28;19927;-49
2022/06/28 09:50:47;;;;;;;;;;;;;;;-146.27;100.00;64033.13;5111329;28;19916;-49
2022/06/28 09:53:15;;;;;;;;;;;;;;;-146.27;100.00;64033.13;5110569;28;19921;-53
2022/06/28 09:55:40;;;;;;;;;;;;;;;-146.27;100.00;64033.13;5110876;28;20402;-48
2022/06/28 09:58:07;;;;;;;;;;;;;;;-146.27;100.00;64033.13;5111233;28;19946;-49
2022/06/28 10:00:34;;;;;;;;;;;;;;;-146.27;100.00;64033.13;5111160;28;19923;-50
2022/06/28 10:03:00;;;;;;;;;;;;;;;-146.27;100.00;64033.13;5110690;28;19956;-50
2022/06/28 10:05:25;;;;;;;;;;;;;;;-146.27;100.00;64033.13;5109995;28;19912;-51
2022/06/28 10:07:51;;;;;;;;;;;;;;;-146.27;100.00;64033.13;5110706;28;20371;-48
2022/06/28 10:10:17;;;;;;;;;;;;;;;-146.27;100.00;64033.13;5110635;28;19981;-50
2022/06/28 10:15:31;;;;;;;;;;;;;;;-146.27;100.00;64033.13;5110749;28;19922;-50
2022/06/28 10:17:56;;;;;;;;;;;;;;;-146.27;100.00;64033.13;5094980;28;19938;-49
2022/06/28 10:20:26;;;;;;;;;;;;;;;-146.27;100.00;64033.13;5090624;28;19935;-49
2022/06/28 10:22:52;;;;;;;;;;;;;;;-146.27;100.00;64033.13;5090462;28;19972;-51
2022/06/28 10:25:23;;;;;;;;;;;;;;;-146.27;100.00;64033.13;5089922;28;19951;-48
2022/06/28 10:27:52;;;;;;;;;;;;;;;-146.27;100.00;64033.13;5090182;28;19916;-50
2022/06/28 10:30:19;;;;;;;;;;;;;;;-146.27;100.00;64033.13;5090567;28;19927;-48
2022/06/28 10:32:51;;;;;;;;;;;;;;;-146.27;100.00;64033.13;5090366;28;19927;-47
2022/06/28 10:35:29;;;;;;;;;;;;;;;-146.27;100.00;64033.13;5091604;28;19920;-50
2022/06/28 10:38:09;;;;;;;;;;;;;;;-146.27;100.00;64033.13;5106032;28;19920;-51
2022/06/28 10:40:38;;;;;;;;;;;;;;;-146.27;100.00;64033.13;5114234;28;19912;-48
2022/06/28 10:43:04;;;;;;;;;;;;;;;-146.27;100.00;64033.13;5114588;28;19912;-51
2022/06/28 10:45:49;;;;;;;;;;;;;;;-146.27;100.00;64033.13;5114118;28;20338;-50
2022/06/28 10:48:14;;;;;;;;;;;;;;;-146.27;100.00;64033.13;5114060;28;19912;-52
2022/06/28 10:50:58;;;;;;;;;;;;;;;-146.27;100.00;64033.13;5113852;28;19912;-51
2022/06/28 10:53:24;;;;;;;;;;;;;;;-146.27;100.00;64033.13;5113668;28;19916;-52
2022/06/28 10:56:08;;;;;;;;;;;;;;;-146.27;100.00;64033.13;5113632;28;19911;-51
2022/06/28 10:58:49;;;;;;;;;;;;;;;-146.27;100.00;64033.13;5113744;28;19916;-52
2022/06/28 11:01:14;;;;;;;;;;;;;;;-146.27;100.00;64033.13;5114047;28;19912;-52
2022/06/28 11:03:58;;;;;;;;;;;;;;;-146.27;100.00;64033.13;5114084;27;19976;-51
2022/06/28 11:06:23;;;;;;;;;;;;;;;-146.27;100.00;64033.13;5113942;28;19912;-52
2022/06/28 11:08:54;;;;;;;;;;;;;;;-146.27;100.00;64033.13;5113746;28;19918;-51
2022/06/28 11:11:19;;;;;;;;;;;;;;;-146.27;100.00;64033.13;5113830;28;19937;-49
2022/06/28 11:13:44;;;;;;;;;;;;;;;-146.27;100.00;64033.13;5113281;28;20102;-52
2022/06/28 11:16:30;;;;;;;;;;;;;;;-146.27;100.00;64033.13;5112278;28;19912;-52
2022/06/28 11:19:08;;;;;;;;;;;;;;;-146.27;100.00;64033.13;5092342;28;20006;-52
2022/06/28 11:21:35;;;;;;;;;;;;;;;-146.27;100.00;64033.13;5093478;28;20436;-49
2022/06/28 11:24:01;;;;;;;;;;;;;;;-146.27;100.00;64033.13;5093038;28;20322;-48
2022/06/28 11:29:15;;;;;;;;;;;;;;;-146.27;100.00;64033.13;5093128;28;19919;-51
2022/06/28 11:31:42;;;;;;;;;;;;;;;-146.27;100.00;64033.13;5092967;28;19916;-49
2022/06/28 11:34:07;;;;;;;;;;;;;;;-146.27;100.00;64033.13;5093289;28;20054;-50
2022/06/28 11:36:32;;;;;;;;;;;;;;;-146.27;100.00;64033.13;5093691;28;20443;-50
2022/06/28 11:39:15;;;;;;;;;;;;;;;-146.27;100.00;64033.13;5113018;28;20295;-50
2022/06/28 11:41:46;;;;;;;;;;;;;;;-146.27;100.00;64033.13;5113165;28;20371;-50
2022/06/28 11:44:11;;;;;;;;;;;;;;;-146.27;100.00;64033.13;5112928;28;19919;-51
2022/06/28 11:46:38;;;;;;;;;;;;;;;-146.27;100.00;64033.13;5112079;28;19916;-51
2022/06/28 11:49:03;;;;;;;;;;;;;;;-146.27;100.00;64033.13;5113100;28;19966;-51
2022/06/28 11:51:30;;;;;;;;;;;;;;;-146.27;100.00;64033.13;5098315;28;20396;-51
2022/06/28 11:53:56;;;;;;;;;;;;;;;-146.27;100.00;64033.13;5093025;28;20072;-51
2022/06/28 11:56:21;;;;;;;;;;;;;;;-146.27;100.00;64033.13;5093151;28;19912;-51
2022/06/28 11:58:46;;;;;;;;;;;;;;;-146.27;100.00;64033.13;5092945;28;19923;-51
2022/06/28 12:01:14;;;;;;;;;;;;;;;-146.27;100.00;64033.13;5093093;28;19916;-52
2022/06/28 12:03:42;;;;;;;;;;;;;;;-146.27;100.00;64033.13;5092633;28;20140;-51
2022/06/28 12:06:11;;;;;;;;;;;;;;;-146.27;100.00;64033.13;5092465;28;20354;-50
2022/06/28 12:08:40;;;;;;;;;;;;;;;-146.27;100.00;64033.13;5092519;28;20025;-48
2022/06/28 12:11:06;;;;;;;;;;;;;;;-146.27;100.00;64033.13;5092243;28;20418;-50
2022/06/28 12:13:31;;;;;;;;;;;;;;;-146.27;100.00;64033.13;5092270;28;19912;-48
2022/06/28 12:15:58;;;;;;;;;;;;;;;-146.27;100.00;64033.13;5092074;28;19923;-48
2022/06/28 12:18:23;;;;;;;;;;;;;;;-146.27;100.00;64033.13;5092461;28;19912;-50
2022/06/28 12:20:57;;;;;;;;;;;;;;;-146.27;100.00;64033.13;5092604;28;19912;-48
2022/06/28 12:23:22;;;;;;;;;;;;;;;-146.27;100.00;64033.13;5091904;28;20290;-48
2022/06/28 12:25:57;;;;;;;;;;;;;;;-146.27;100.00;64033.13;5092015;28;19919;-48
2022/06/28 12:28:22;;;;;;;;;;;;;;;-146.27;100.00;64033.13;5091832;28;19912;-51